sensor_id;sensor_type;location;lat;lon;timestamp;P1;durP1;ratioP1;P2;durP2;ratioP2
17763;SDS011;22245;52.832;13.816;2022-07-01T00:00:15;12.63;;;10.82;;
17763;SDS011;22245;52.832;13.816;2022-07-01T00:03:37;13.35;;;11.50;;
17763;SDS011;22245;52.832;13.816;2022-07-01T00:06:59;12.73;;;10.57;;
17763;SDS011;22245;52.832;13.816;2022-07-01T00:10:21;17.02;;;12.57;;
17763;SDS011;22245;52.832;13.816;2022-07-01T00:13:43;13.35;;;11.95;;
17763;SDS011;22245;52.832;13.816;2022-07-01T00:17:06;13.63;;;12.18;;
17763;SDS011;22245;52.832;13.816;2022-07-01T00:20:28;13.25;;;11.85;;
17763;SDS011;22245;52.832;13.816;2022-07-01T00:23:50;14.60;;;12.75;;
17763;SDS011;22245;52.832;13.816;2022-07-01T00:27:12;13.95;;;11.82;;
17763;SDS011;22245;52.832;13.816;2022-07-01T00:30:34;13.57;;;12.10;;
17763;SDS011;22245;52.832;13.816;2022-07-01T00:33:57;14.02;;;11.73;;
17763;SDS011;22245;52.832;13.816;2022-07-01T00:37:19;15.77;;;12.25;;
17763;SDS011;22245;52.832;13.816;2022-07-01T00:40:41;14.65;;;12.80;;
17763;SDS011;22245;52.832;13.816;2022-07-01T00:44:03;13.13;;;11.75;;
17763;SDS011;22245;52.832;13.816;2022-07-01T00:47:24;15.57;;;13.65;;
17763;SDS011;22245;52.832;13.816;2022-07-01T00:50:48;14.82;;;11.30;;
17763;SDS011;22245;52.832;13.816;2022-07-01T00:54:10;15.02;;;12.48;;
17763;SDS011;22245;52.832;13.816;2022-07-01T00:57:33;14.25;;;12.75;;
17763;SDS011;22245;52.832;13.816;2022-07-01T01:00:56;15.63;;;13.23;;
17763;SDS011;22245;52.832;13.816;2022-07-01T01:04:18;17.10;;;13.63;;
17763;SDS011;22245;52.832;13.816;2022-07-01T01:07:42;16.73;;;14.07;;
17763;SDS011;22245;52.832;13.816;2022-07-01T01:11:03;15.52;;;13.52;;
17763;SDS011;22245;52.832;13.816;2022-07-01T01:14:25;17.05;;;13.23;;
17763;SDS011;22245;52.832;13.816;2022-07-01T01:17:47;14.43;;;12.88;;
17763;SDS011;22245;52.832;13.816;2022-07-01T01:21:10;14.90;;;13.00;;
17763;SDS011;22245;52.832;13.816;2022-07-01T01:24:32;20.85;;;14.15;;
17763;SDS011;22245;52.832;13.816;2022-07-01T01:27:54;15.55;;;13.35;;
17763;SDS011;22245;52.832;13.816;2022-07-01T01:31:15;17.48;;;13.52;;
17763;SDS011;22245;52.832;13.816;2022-07-01T01:34:38;15.90;;;13.48;;
17763;SDS011;22245;52.832;13.816;2022-07-01T01:38:02;15.25;;;13.65;;
17763;SDS011;22245;52.832;13.816;2022-07-01T01:41:23;14.73;;;12.98;;
17763;SDS011;22245;52.832;13.816;2022-07-01T01:44:45;15.52;;;13.20;;
17763;SDS011;22245;52.832;13.816;2022-07-01T01:48:07;16.33;;;13.13;;
17763;SDS011;22245;52.832;13.816;2022-07-01T01:51:29;16.52;;;14.20;;
17763;SDS011;22245;52.832;13.816;2022-07-01T01:54:52;16.50;;;13.68;;
17763;SDS011;22245;52.832;13.816;2022-07-01T01:58:14;16.33;;;13.57;;
17763;SDS011;22245;52.832;13.816;2022-07-01T02:01:36;15.50;;;13.80;;
17763;SDS011;22245;52.832;13.816;2022-07-01T02:04:58;15.20;;;13.05;;
17763;SDS011;22245;52.832;13.816;2022-07-01T02:08:19;15.77;;;12.98;;
17763;SDS011;22245;52.832;13.816;2022-07-01T02:11:42;16.88;;;13.55;;
17763;SDS011;22245;52.832;13.816;2022-07-01T02:15:04;14.13;;;12.63;;
17763;SDS011;22245;52.832;13.816;2022-07-01T02:18:26;15.15;;;13.20;;
17763;SDS011;22245;52.832;13.816;2022-07-01T02:21:48;17.20;;;13.70;;
17763;SDS011;22245;52.832;13.816;2022-07-01T02:25:11;15.68;;;13.13;;
17763;SDS011;22245;52.832;13.816;2022-07-01T02:28:34;15.43;;;13.40;;
17763;SDS011;22245;52.832;13.816;2022-07-01T02:31:56;15.88;;;13.38;;
17763;SDS011;22245;52.832;13.816;2022-07-01T02:35:17;15.88;;;13.43;;
17763;SDS011;22245;52.832;13.816;2022-07-01T02:38:39;16.48;;;13.60;;
17763;SDS011;22245;52.832;13.816;2022-07-01T02:42:01;16.67;;;13.90;;
17763;SDS011;22245;52.832;13.816;2022-07-01T02:45:41;18.33;;;13.40;;
17763;SDS011;22245;52.832;13.816;2022-07-01T02:49:03;16.25;;;13.05;;
17763;SDS011;22245;52.832;13.816;2022-07-01T02:52:25;17.10;;;13.18;;
17763;SDS011;22245;52.832;13.816;2022-07-01T02:55:47;15.93;;;13.20;;
17763;SDS011;22245;52.832;13.816;2022-07-01T02:59:08;16.98;;;13.70;;
17763;SDS011;22245;52.832;13.816;2022-07-01T03:02:31;18.45;;;13.45;;
17763;SDS011;22245;52.832;13.816;2022-07-01T03:05:54;16.42;;;12.93;;
17763;SDS011;22245;52.832;13.816;2022-07-01T03:09:15;17.33;;;13.15;;
17763;SDS011;22245;52.832;13.816;2022-07-01T03:12:37;18.80;;;13.82;;
17763;SDS011;22245;52.832;13.816;2022-07-01T03:16:00;16.10;;;13.18;;
17763;SDS011;22245;52.832;13.816;2022-07-01T03:19:23;17.08;;;13.68;;
17763;SDS011;22245;52.832;13.816;2022-07-01T03:22:45;15.35;;;12.82;;
17763;SDS011;22245;52.832;13.816;2022-07-01T03:26:07;18.63;;;13.88;;
17763;SDS011;22245;52.832;13.816;2022-07-01T03:29:30;17.40;;;14.35;;
17763;SDS011;22245;52.832;13.816;2022-07-01T03:32:51;16.48;;;14.38;;
17763;SDS011;22245;52.832;13.816;2022-07-01T03:36:15;17.38;;;13.80;;
17763;SDS011;22245;52.832;13.816;2022-07-01T03:39:37;18.10;;;13.90;;
17763;SDS011;22245;52.832;13.816;2022-07-01T03:42:59;17.98;;;13.73;;
17763;SDS011;22245;52.832;13.816;2022-07-01T03:46:21;16.52;;;13.90;;
17763;SDS011;22245;52.832;13.816;2022-07-01T03:49:43;17.45;;;14.55;;
17763;SDS011;22245;52.832;13.816;2022-07-01T03:53:06;18.23;;;14.82;;
17763;SDS011;22245;52.832;13.816;2022-07-01T03:56:45;18.20;;;14.55;;
17763;SDS011;22245;52.832;13.816;2022-07-01T04:00:07;17.77;;;14.25;;
17763;SDS011;22245;52.832;13.816;2022-07-01T04:03:29;17.25;;;13.88;;
17763;SDS011;22245;52.832;13.816;2022-07-01T04:06:51;17.42;;;13.98;;
17763;SDS011;22245;52.832;13.816;2022-07-01T04:10:15;19.55;;;15.25;;
17763;SDS011;22245;52.832;13.816;2022-07-01T04:13:37;20.17;;;14.95;;
17763;SDS011;22245;52.832;13.816;2022-07-01T04:16:59;17.05;;;14.63;;
17763;SDS011;22245;52.832;13.816;2022-07-01T04:20:21;19.85;;;15.10;;
17763;SDS011;22245;52.832;13.816;2022-07-01T04:23:43;19.70;;;15.23;;
17763;SDS011;22245;52.832;13.816;2022-07-01T04:27:05;20.88;;;16.02;;
17763;SDS011;22245;52.832;13.816;2022-07-01T04:30:27;17.92;;;14.60;;
17763;SDS011;22245;52.832;13.816;2022-07-01T04:33:49;19.45;;;14.57;;
17763;SDS011;22245;52.832;13.816;2022-07-01T04:37:11;20.48;;;15.68;;
17763;SDS011;22245;52.832;13.816;2022-07-01T04:40:34;18.70;;;15.40;;
17763;SDS011;22245;52.832;13.816;2022-07-01T04:43:57;17.02;;;14.45;;
17763;SDS011;22245;52.832;13.816;2022-07-01T04:47:19;23.15;;;17.10;;
17763;SDS011;22245;52.832;13.816;2022-07-01T04:50:42;22.40;;;16.02;;
17763;SDS011;22245;52.832;13.816;2022-07-01T04:54:05;20.63;;;16.40;;
17763;SDS011;22245;52.832;13.816;2022-07-01T04:57:28;19.85;;;16.23;;
17763;SDS011;22245;52.832;13.816;2022-07-01T05:00:52;22.05;;;16.50;;
17763;SDS011;22245;52.832;13.816;2022-07-01T05:04:13;21.50;;;16.38;;
17763;SDS011;22245;52.832;13.816;2022-07-01T05:07:35;24.67;;;18.90;;
17763;SDS011;22245;52.832;13.816;2022-07-01T05:10:57;22.60;;;16.88;;
17763;SDS011;22245;52.832;13.816;2022-07-01T05:14:18;21.95;;;17.55;;
17763;SDS011;22245;52.832;13.816;2022-07-01T05:17:42;21.63;;;17.77;;
17763;SDS011;22245;52.832;13.816;2022-07-01T05:21:21;23.90;;;17.70;;
17763;SDS011;22245;52.832;13.816;2022-07-01T05:25:00;22.60;;;18.45;;
17763;SDS011;22245;52.832;13.816;2022-07-01T05:28:22;25.70;;;18.67;;
17763;SDS011;22245;52.832;13.816;2022-07-01T05:31:44;22.73;;;18.75;;
17763;SDS011;22245;52.832;13.816;2022-07-01T05:35:08;27.90;;;18.85;;
17763;SDS011;22245;52.832;13.816;2022-07-01T05:38:30;26.02;;;20.67;;
17763;SDS011;22245;52.832;13.816;2022-07-01T05:41:51;23.17;;;19.13;;
17763;SDS011;22245;52.832;13.816;2022-07-01T05:45:13;22.42;;;18.48;;
17763;SDS011;22245;52.832;13.816;2022-07-01T05:48:35;25.70;;;19.77;;
17763;SDS011;22245;52.832;13.816;2022-07-01T05:51:58;24.63;;;19.00;;
17763;SDS011;22245;52.832;13.816;2022-07-01T05:55:20;30.42;;;19.65;;
17763;SDS011;22245;52.832;13.816;2022-07-01T05:58:42;23.73;;;18.98;;
17763;SDS011;22245;52.832;13.816;2022-07-01T06:02:04;25.10;;;19.70;;
17763;SDS011;22245;52.832;13.816;2022-07-01T06:05:25;24.00;;;19.55;;
17763;SDS011;22245;52.832;13.816;2022-07-01T06:08:48;22.35;;;19.63;;
17763;SDS011;22245;52.832;13.816;2022-07-01T06:12:10;21.55;;;17.63;;
17763;SDS011;22245;52.832;13.816;2022-07-01T06:15:32;25.75;;;19.33;;
17763;SDS011;22245;52.832;13.816;2022-07-01T06:18:54;22.50;;;18.52;;
17763;SDS011;22245;52.832;13.816;2022-07-01T06:22:15;25.02;;;18.42;;
17763;SDS011;22245;52.832;13.816;2022-07-01T06:25:40;22.67;;;18.20;;
17763;SDS011;22245;52.832;13.816;2022-07-01T06:29:02;21.70;;;18.40;;
17763;SDS011;22245;52.832;13.816;2022-07-01T06:32:24;23.35;;;18.83;;
17763;SDS011;22245;52.832;13.816;2022-07-01T06:35:45;22.88;;;18.90;;
17763;SDS011;22245;52.832;13.816;2022-07-01T06:39:08;25.35;;;18.15;;
17763;SDS011;22245;52.832;13.816;2022-07-01T06:42:31;24.33;;;19.73;;
17763;SDS011;22245;52.832;13.816;2022-07-01T06:45:53;21.92;;;18.15;;
17763;SDS011;22245;52.832;13.816;2022-07-01T06:49:15;20.92;;;18.73;;
17763;SDS011;22245;52.832;13.816;2022-07-01T06:52:37;23.77;;;19.08;;
17763;SDS011;22245;52.832;13.816;2022-07-01T06:55:59;24.55;;;18.98;;
17763;SDS011;22245;52.832;13.816;2022-07-01T06:59:22;21.98;;;18.80;;
17763;SDS011;22245;52.832;13.816;2022-07-01T07:02:44;20.67;;;18.35;;
17763;SDS011;22245;52.832;13.816;2022-07-01T07:06:06;23.75;;;18.52;;
17763;SDS011;22245;52.832;13.816;2022-07-01T07:09:27;22.48;;;18.45;;
17763;SDS011;22245;52.832;13.816;2022-07-01T07:12:49;24.75;;;18.50;;
17763;SDS011;22245;52.832;13.816;2022-07-01T07:16:13;23.27;;;18.70;;
17763;SDS011;22245;52.832;13.816;2022-07-01T07:19:34;23.88;;;18.83;;
17763;SDS011;22245;52.832;13.816;2022-07-01T07:22:56;23.65;;;18.65;;
17763;SDS011;22245;52.832;13.816;2022-07-01T07:26:18;24.30;;;19.00;;
17763;SDS011;22245;52.832;13.816;2022-07-01T07:29:41;23.77;;;19.50;;
17763;SDS011;22245;52.832;13.816;2022-07-01T07:33:04;21.45;;;18.67;;
17763;SDS011;22245;52.832;13.816;2022-07-01T07:36:26;21.42;;;18.92;;
17763;SDS011;22245;52.832;13.816;2022-07-01T07:39:48;21.70;;;19.20;;
17763;SDS011;22245;52.832;13.816;2022-07-01T07:43:10;24.75;;;19.63;;
17763;SDS011;22245;52.832;13.816;2022-07-01T07:46:31;26.45;;;18.55;;
17763;SDS011;22245;52.832;13.816;2022-07-01T07:49:55;24.30;;;18.52;;
17763;SDS011;22245;52.832;13.816;2022-07-01T07:53:17;22.58;;;19.05;;
17763;SDS011;22245;52.832;13.816;2022-07-01T07:56:38;24.98;;;19.30;;
17763;SDS011;22245;52.832;13.816;2022-07-01T08:00:05;25.85;;;19.48;;
17763;SDS011;22245;52.832;13.816;2022-07-01T08:03:31;23.73;;;19.15;;
17763;SDS011;22245;52.832;13.816;2022-07-01T08:06:55;28.77;;;19.90;;
17763;SDS011;22245;52.832;13.816;2022-07-01T08:10:17;24.20;;;20.17;;
17763;SDS011;22245;52.832;13.816;2022-07-01T08:13:39;27.52;;;20.48;;
17763;SDS011;22245;52.832;13.816;2022-07-01T08:17:01;25.58;;;20.52;;
17763;SDS011;22245;52.832;13.816;2022-07-01T08:20:23;25.98;;;20.05;;
17763;SDS011;22245;52.832;13.816;2022-07-01T08:23:47;25.10;;;19.67;;
17763;SDS011;22245;52.832;13.816;2022-07-01T08:27:08;27.10;;;21.05;;
17763;SDS011;22245;52.832;13.816;2022-07-01T08:30:30;25.65;;;20.05;;
17763;SDS011;22245;52.832;13.816;2022-07-01T08:33:52;25.05;;;20.75;;
17763;SDS011;22245;52.832;13.816;2022-07-01T08:37:13;23.75;;;20.08;;
17763;SDS011;22245;52.832;13.816;2022-07-01T08:40:36;26.80;;;19.92;;
17763;SDS011;22245;52.832;13.816;2022-07-01T08:43:58;22.60;;;19.98;;
17763;SDS011;22245;52.832;13.816;2022-07-01T08:47:20;24.88;;;21.25;;
17763;SDS011;22245;52.832;13.816;2022-07-01T08:50:42;25.50;;;20.83;;
17763;SDS011;22245;52.832;13.816;2022-07-01T08:54:04;25.83;;;20.85;;
17763;SDS011;22245;52.832;13.816;2022-07-01T08:57:27;26.13;;;21.92;;
17763;SDS011;22245;52.832;13.816;2022-07-01T09:00:50;24.67;;;20.67;;
17763;SDS011;22245;52.832;13.816;2022-07-01T09:04:19;24.73;;;20.50;;
17763;SDS011;22245;52.832;13.816;2022-07-01T09:07:41;26.25;;;20.20;;
17763;SDS011;22245;52.832;13.816;2022-07-01T09:11:12;24.95;;;19.75;;
17763;SDS011;22245;52.832;13.816;2022-07-01T09:14:37;26.58;;;21.00;;
17763;SDS011;22245;52.832;13.816;2022-07-01T09:18:02;28.88;;;22.98;;
17763;SDS011;22245;52.832;13.816;2022-07-01T09:21:27;25.85;;;19.42;;
17763;SDS011;22245;52.832;13.816;2022-07-01T09:24:50;22.30;;;19.90;;
17763;SDS011;22245;52.832;13.816;2022-07-01T09:28:13;24.80;;;20.00;;
17763;SDS011;22245;52.832;13.816;2022-07-01T09:31:37;25.73;;;19.98;;
17763;SDS011;22245;52.832;13.816;2022-07-01T09:35:09;24.60;;;19.65;;
17763;SDS011;22245;52.832;13.816;2022-07-01T09:38:44;23.00;;;19.08;;
17763;SDS011;22245;52.832;13.816;2022-07-01T09:42:08;24.08;;;19.92;;
17763;SDS011;22245;52.832;13.816;2022-07-01T09:45:30;22.88;;;20.13;;
17763;SDS011;22245;52.832;13.816;2022-07-01T09:48:57;24.25;;;19.40;;
17763;SDS011;22245;52.832;13.816;2022-07-01T09:52:19;23.27;;;20.00;;
17763;SDS011;22245;52.832;13.816;2022-07-01T09:55:42;26.42;;;20.23;;
17763;SDS011;22245;52.832;13.816;2022-07-01T09:59:03;23.77;;;19.63;;
17763;SDS011;22245;52.832;13.816;2022-07-01T10:02:25;25.05;;;20.00;;
17763;SDS011;22245;52.832;13.816;2022-07-01T10:05:53;22.77;;;19.13;;
17763;SDS011;22245;52.832;13.816;2022-07-01T10:09:21;22.27;;;19.02;;
17763;SDS011;22245;52.832;13.816;2022-07-01T10:13:05;24.75;;;18.77;;
17763;SDS011;22245;52.832;13.816;2022-07-01T10:16:31;21.40;;;18.77;;
17763;SDS011;22245;52.832;13.816;2022-07-01T10:19:54;20.45;;;18.25;;
17763;SDS011;22245;52.832;13.816;2022-07-01T10:23:19;22.35;;;18.80;;
17763;SDS011;22245;52.832;13.816;2022-07-01T10:26:42;19.92;;;17.35;;
17763;SDS011;22245;52.832;13.816;2022-07-01T10:30:14;18.65;;;16.67;;
17763;SDS011;22245;52.832;13.816;2022-07-01T10:33:40;18.88;;;14.90;;
17763;SDS011;22245;52.832;13.816;2022-07-01T10:37:06;18.10;;;14.05;;
17763;SDS011;22245;52.832;13.816;2022-07-01T10:40:41;19.17;;;13.57;;
17763;SDS011;22245;52.832;13.816;2022-07-01T10:44:05;11.73;;;9.43;;
17763;SDS011;22245;52.832;13.816;2022-07-01T10:47:36;10.77;;;7.07;;
17763;SDS011;22245;52.832;13.816;2022-07-01T10:50:58;8.93;;;5.28;;
17763;SDS011;22245;52.832;13.816;2022-07-01T10:54:44;6.53;;;4.65;;
17763;SDS011;22245;52.832;13.816;2022-07-01T10:58:09;9.68;;;4.97;;
17763;SDS011;22245;52.832;13.816;2022-07-01T11:01:31;9.55;;;4.60;;
17763;SDS011;22245;52.832;13.816;2022-07-01T11:04:53;7.55;;;4.03;;
17763;SDS011;22245;52.832;13.816;2022-07-01T11:08:16;6.38;;;3.85;;
17763;SDS011;22245;52.832;13.816;2022-07-01T11:11:46;4.88;;;3.85;;
17763;SDS011;22245;52.832;13.816;2022-07-01T11:15:10;4.47;;;4.07;;
17763;SDS011;22245;52.832;13.816;2022-07-01T11:18:33;9.98;;;4.40;;
17763;SDS011;22245;52.832;13.816;2022-07-01T11:21:55;8.60;;;3.70;;
17763;SDS011;22245;52.832;13.816;2022-07-01T11:25:17;6.10;;;3.83;;
17763;SDS011;22245;52.832;13.816;2022-07-01T11:28:40;4.30;;;3.90;;
17763;SDS011;22245;52.832;13.816;2022-07-01T11:32:04;5.45;;;4.13;;
17763;SDS011;22245;52.832;13.816;2022-07-01T11:35:27;3.95;;;3.65;;
17763;SDS011;22245;52.832;13.816;2022-07-01T11:39:08;4.13;;;3.10;;
17763;SDS011;22245;52.832;13.816;2022-07-01T11:42:45;4.25;;;2.50;;
17763;SDS011;22245;52.832;13.816;2022-07-01T11:46:07;4.63;;;2.42;;
17763;SDS011;22245;52.832;13.816;2022-07-01T11:49:31;3.50;;;2.22;;
17763;SDS011;22245;52.832;13.816;2022-07-01T11:52:53;4.03;;;2.08;;
17763;SDS011;22245;52.832;13.816;2022-07-01T11:56:16;1.40;;;1.30;;
17763;SDS011;22245;52.832;13.816;2022-07-01T11:59:39;2.10;;;1.83;;
17763;SDS011;22245;52.832;13.816;2022-07-01T12:03:02;1.65;;;1.52;;
17763;SDS011;22245;52.832;13.816;2022-07-01T12:06:27;4.03;;;1.40;;
17763;SDS011;22245;52.832;13.816;2022-07-01T12:09:50;1.48;;;1.38;;
17763;SDS011;22245;52.832;13.816;2022-07-01T12:13:21;1.33;;;1.10;;
17763;SDS011;22245;52.832;13.816;2022-07-01T12:16:43;1.10;;;1.00;;
17763;SDS011;22245;52.832;13.816;2022-07-01T12:20:06;4.78;;;1.00;;
17763;SDS011;22245;52.832;13.816;2022-07-01T12:23:30;2.80;;;1.17;;
17763;SDS011;22245;52.832;13.816;2022-07-01T12:27:07;1.10;;;1.00;;
17763;SDS011;22245;52.832;13.816;2022-07-01T12:30:29;0.60;;;0.60;;
17763;SDS011;22245;52.832;13.816;2022-07-01T12:33:53;1.13;;;0.70;;
17763;SDS011;22245;52.832;13.816;2022-07-01T12:37:15;1.63;;;0.60;;
17763;SDS011;22245;52.832;13.816;2022-07-01T12:40:39;1.50;;;0.63;;
17763;SDS011;22245;52.832;13.816;2022-07-01T12:44:01;1.50;;;0.60;;
17763;SDS011;22245;52.832;13.816;2022-07-01T12:47:27;0.90;;;0.50;;
17763;SDS011;22245;52.832;13.816;2022-07-01T12:50:51;2.42;;;0.57;;
17763;SDS011;22245;52.832;13.816;2022-07-01T12:54:30;0.60;;;0.60;;
17763;SDS011;22245;52.832;13.816;2022-07-01T12:57:55;4.70;;;0.70;;
17763;SDS011;22245;52.832;13.816;2022-07-01T13:01:19;2.17;;;0.70;;
17763;SDS011;22245;52.832;13.816;2022-07-01T13:04:41;1.33;;;0.70;;
17763;SDS011;22245;52.832;13.816;2022-07-01T13:08:03;0.90;;;0.90;;
17763;SDS011;22245;52.832;13.816;2022-07-01T13:11:26;0.60;;;0.60;;
17763;SDS011;22245;52.832;13.816;2022-07-01T13:14:49;0.85;;;0.85;;
17763;SDS011;22245;52.832;13.816;2022-07-01T13:18:11;3.08;;;0.77;;
17763;SDS011;22245;52.832;13.816;2022-07-01T13:21:34;0.80;;;0.80;;
17763;SDS011;22245;52.832;13.816;2022-07-01T13:24:55;1.08;;;0.90;;
17763;SDS011;22245;52.832;13.816;2022-07-01T13:28:17;2.08;;;1.00;;
17763;SDS011;22245;52.832;13.816;2022-07-01T13:31:40;2.80;;;1.00;;
17763;SDS011;22245;52.832;13.816;2022-07-01T13:35:01;1.60;;;1.10;;
17763;SDS011;22245;52.832;13.816;2022-07-01T13:38:23;1.67;;;1.00;;
17763;SDS011;22245;52.832;13.816;2022-07-01T13:41:45;1.67;;;0.90;;
17763;SDS011;22245;52.832;13.816;2022-07-01T13:45:07;1.98;;;0.82;;
17763;SDS011;22245;52.832;13.816;2022-07-01T13:48:31;1.27;;;0.80;;
17763;SDS011;22245;52.832;13.816;2022-07-01T13:51:53;1.00;;;0.90;;
17763;SDS011;22245;52.832;13.816;2022-07-01T13:55:15;0.75;;;0.70;;
17763;SDS011;22245;52.832;13.816;2022-07-01T13:58:36;1.42;;;0.80;;
17763;SDS011;22245;52.832;13.816;2022-07-01T14:01:58;3.05;;;0.80;;
17763;SDS011;22245;52.832;13.816;2022-07-01T14:05:21;0.90;;;0.90;;
17763;SDS011;22245;52.832;13.816;2022-07-01T14:08:43;0.80;;;0.80;;
17763;SDS011;22245;52.832;13.816;2022-07-01T14:12:05;2.10;;;0.90;;
17763;SDS011;22245;52.832;13.816;2022-07-01T14:15:33;1.02;;;0.90;;
17763;SDS011;22245;52.832;13.816;2022-07-01T14:18:55;1.17;;;0.90;;
17763;SDS011;22245;52.832;13.816;2022-07-01T14:22:19;1.35;;;1.25;;
17763;SDS011;22245;52.832;13.816;2022-07-01T14:25:40;1.58;;;1.48;;
17763;SDS011;22245;52.832;13.816;2022-07-01T14:29:05;1.55;;;1.23;;
17763;SDS011;22245;52.832;13.816;2022-07-01T14:32:27;2.28;;;1.60;;
17763;SDS011;22245;52.832;13.816;2022-07-01T14:35:49;3.47;;;1.90;;
17763;SDS011;22245;52.832;13.816;2022-07-01T14:39:16;2.00;;;1.90;;
17763;SDS011;22245;52.832;13.816;2022-07-01T14:42:38;2.10;;;1.95;;
17763;SDS011;22245;52.832;13.816;2022-07-01T14:46:00;2.50;;;2.30;;
17763;SDS011;22245;52.832;13.816;2022-07-01T14:49:24;2.80;;;2.60;;
17763;SDS011;22245;52.832;13.816;2022-07-01T14:52:46;2.70;;;2.50;;
17763;SDS011;22245;52.832;13.816;2022-07-01T14:56:10;3.08;;;2.78;;
17763;SDS011;22245;52.832;13.816;2022-07-01T14:59:31;3.40;;;3.20;;
17763;SDS011;22245;52.832;13.816;2022-07-01T15:02:53;4.07;;;3.72;;
17763;SDS011;22245;52.832;13.816;2022-07-01T15:06:16;3.40;;;3.10;;
17763;SDS011;22245;52.832;13.816;2022-07-01T15:09:38;3.60;;;3.30;;
17763;SDS011;22245;52.832;13.816;2022-07-01T15:13:01;3.33;;;3.03;;
17763;SDS011;22245;52.832;13.816;2022-07-01T15:16:23;4.25;;;3.20;;
17763;SDS011;22245;52.832;13.816;2022-07-01T15:19:45;3.17;;;2.88;;
17763;SDS011;22245;52.832;13.816;2022-07-01T15:23:07;3.90;;;3.53;;
17763;SDS011;22245;52.832;13.816;2022-07-01T15:26:28;3.60;;;3.30;;
17763;SDS011;22245;52.832;13.816;2022-07-01T15:29:52;3.20;;;2.90;;
17763;SDS011;22245;52.832;13.816;2022-07-01T15:33:14;5.82;;;2.83;;
17763;SDS011;22245;52.832;13.816;2022-07-01T15:36:36;3.20;;;2.90;;
17763;SDS011;22245;52.832;13.816;2022-07-01T15:39:58;3.72;;;3.40;;
17763;SDS011;22245;52.832;13.816;2022-07-01T15:43:22;3.60;;;3.30;;
17763;SDS011;22245;52.832;13.816;2022-07-01T15:46:45;4.22;;;3.45;;
17763;SDS011;22245;52.832;13.816;2022-07-01T15:50:07;3.22;;;2.92;;
17763;SDS011;22245;52.832;13.816;2022-07-01T15:53:29;3.00;;;2.80;;
17763;SDS011;22245;52.832;13.816;2022-07-01T15:56:51;4.18;;;3.20;;
17763;SDS011;22245;52.832;13.816;2022-07-01T16:00:13;3.83;;;2.90;;
17763;SDS011;22245;52.832;13.816;2022-07-01T16:03:37;3.22;;;2.92;;
17763;SDS011;22245;52.832;13.816;2022-07-01T16:06:59;4.00;;;3.05;;
17763;SDS011;22245;52.832;13.816;2022-07-01T16:10:25;3.67;;;2.83;;
17763;SDS011;22245;52.832;13.816;2022-07-01T16:13:52;3.00;;;2.75;;
17763;SDS011;22245;52.832;13.816;2022-07-01T16:17:15;2.50;;;2.30;;
17763;SDS011;22245;52.832;13.816;2022-07-01T16:20:39;3.17;;;2.88;;
17763;SDS011;22245;52.832;13.816;2022-07-01T16:24:02;3.13;;;2.70;;
17763;SDS011;22245;52.832;13.816;2022-07-01T16:27:24;3.65;;;2.60;;
17763;SDS011;22245;52.832;13.816;2022-07-01T16:30:46;2.63;;;2.42;;
17763;SDS011;22245;52.832;13.816;2022-07-01T16:34:07;3.20;;;2.40;;
17763;SDS011;22245;52.832;13.816;2022-07-01T16:37:31;2.83;;;2.38;;
17763;SDS011;22245;52.832;13.816;2022-07-01T16:40:57;3.55;;;2.40;;
17763;SDS011;22245;52.832;13.816;2022-07-01T16:44:24;3.35;;;2.70;;
17763;SDS011;22245;52.832;13.816;2022-07-01T16:47:50;3.17;;;2.88;;
17763;SDS011;22245;52.832;13.816;2022-07-01T16:51:16;2.88;;;2.58;;
17763;SDS011;22245;52.832;13.816;2022-07-01T16:54:40;2.63;;;2.42;;
17763;SDS011;22245;52.832;13.816;2022-07-01T16:58:13;3.67;;;2.28;;
17763;SDS011;22245;52.832;13.816;2022-07-01T17:01:40;2.40;;;2.20;;
17763;SDS011;22245;52.832;13.816;2022-07-01T17:05:03;2.28;;;2.00;;
17763;SDS011;22245;52.832;13.816;2022-07-01T17:08:26;2.72;;;2.20;;
17763;SDS011;22245;52.832;13.816;2022-07-01T17:11:50;3.33;;;2.63;;
17763;SDS011;22245;52.832;13.816;2022-07-01T17:15:12;2.67;;;2.47;;
17763;SDS011;22245;52.832;13.816;2022-07-01T17:18:34;2.65;;;2.45;;
17763;SDS011;22245;52.832;13.816;2022-07-01T17:21:55;4.20;;;2.85;;
17763;SDS011;22245;52.832;13.816;2022-07-01T17:25:25;3.45;;;2.50;;
17763;SDS011;22245;52.832;13.816;2022-07-01T17:28:54;3.65;;;2.35;;
17763;SDS011;22245;52.832;13.816;2022-07-01T17:32:18;4.82;;;2.60;;
17763;SDS011;22245;52.832;13.816;2022-07-01T17:35:46;4.32;;;2.65;;
17763;SDS011;22245;52.832;13.816;2022-07-01T17:39:12;3.28;;;2.20;;
17763;SDS011;22245;52.832;13.816;2022-07-01T17:42:35;2.40;;;2.20;;
17763;SDS011;22245;52.832;13.816;2022-07-01T17:45:59;2.50;;;2.30;;
17763;SDS011;22245;52.832;13.816;2022-07-01T17:49:23;2.50;;;2.30;;
17763;SDS011;22245;52.832;13.816;2022-07-01T17:52:48;2.40;;;2.20;;
17763;SDS011;22245;52.832;13.816;2022-07-01T17:56:10;2.42;;;2.20;;
17763;SDS011;22245;52.832;13.816;2022-07-01T17:59:33;2.40;;;2.20;;
17763;SDS011;22245;52.832;13.816;2022-07-01T18:02:58;2.25;;;2.05;;
17763;SDS011;22245;52.832;13.816;2022-07-01T18:06:21;2.20;;;2.00;;
17763;SDS011;22245;52.832;13.816;2022-07-01T18:09:43;2.08;;;1.90;;
17763;SDS011;22245;52.832;13.816;2022-07-01T18:13:04;2.33;;;2.03;;
17763;SDS011;22245;52.832;13.816;2022-07-01T18:16:28;2.33;;;1.90;;
17763;SDS011;22245;52.832;13.816;2022-07-01T18:20:06;3.72;;;1.95;;
17763;SDS011;22245;52.832;13.816;2022-07-01T18:23:30;2.85;;;1.90;;
17763;SDS011;22245;52.832;13.816;2022-07-01T18:26:55;2.65;;;1.98;;
17763;SDS011;22245;52.832;13.816;2022-07-01T18:30:22;2.72;;;1.73;;
17763;SDS011;22245;52.832;13.816;2022-07-01T18:33:45;2.67;;;1.65;;
17763;SDS011;22245;52.832;13.816;2022-07-01T18:37:18;3.42;;;1.92;;
17763;SDS011;22245;52.832;13.816;2022-07-01T18:40:41;2.75;;;2.20;;
17763;SDS011;22245;52.832;13.816;2022-07-01T18:44:03;2.95;;;2.30;;
17763;SDS011;22245;52.832;13.816;2022-07-01T18:47:25;3.50;;;2.30;;
17763;SDS011;22245;52.832;13.816;2022-07-01T18:50:46;3.10;;;2.40;;
17763;SDS011;22245;52.832;13.816;2022-07-01T18:54:09;4.50;;;2.35;;
17763;SDS011;22245;52.832;13.816;2022-07-01T18:57:31;2.70;;;2.45;;
17763;SDS011;22245;52.832;13.816;2022-07-01T19:00:53;7.00;;;2.20;;
17763;SDS011;22245;52.832;13.816;2022-07-01T19:04:15;3.28;;;1.88;;
17763;SDS011;22245;52.832;13.816;2022-07-01T19:07:37;2.55;;;2.20;;
17763;SDS011;22245;52.832;13.816;2022-07-01T19:11:00;4.03;;;1.98;;
17763;SDS011;22245;52.832;13.816;2022-07-01T19:14:22;4.13;;;2.22;;
17763;SDS011;22245;52.832;13.816;2022-07-01T19:17:44;5.10;;;2.25;;
17763;SDS011;22245;52.832;13.816;2022-07-01T19:21:06;2.65;;;2.00;;
17763;SDS011;22245;52.832;13.816;2022-07-01T19:24:28;2.03;;;1.83;;
17763;SDS011;22245;52.832;13.816;2022-07-01T19:27:51;3.17;;;1.83;;
17763;SDS011;22245;52.832;13.816;2022-07-01T19:31:13;4.40;;;2.20;;
17763;SDS011;22245;52.832;13.816;2022-07-01T19:34:35;3.70;;;2.17;;
17763;SDS011;22245;52.832;13.816;2022-07-01T19:37:57;3.17;;;2.15;;
17763;SDS011;22245;52.832;13.816;2022-07-01T19:41:21;2.10;;;1.70;;
17763;SDS011;22245;52.832;13.816;2022-07-01T19:44:44;4.38;;;2.20;;
17763;SDS011;22245;52.832;13.816;2022-07-01T19:48:06;2.50;;;2.15;;